createdAt,value
2017-12-15T00:02:07.268Z,96417.33
2017-12-15T00:04:34.714Z,96411.20
2017-12-15T00:07:02.174Z,96400.11
2017-12-15T00:09:30.165Z,96389.20
2017-12-15T00:11:58.409Z,96379.54
2017-12-15T00:14:25.860Z,96380.21
2017-12-15T00:16:53.865Z,96382.05
2017-12-15T00:19:21.313Z,96379.33
2017-12-15T00:21:48.754Z,96363.30
2017-12-15T00:24:16.504Z,96356.31
2017-12-15T00:26:43.960Z,96354.30
2017-12-15T00:29:11.425Z,96350.75
2017-12-15T00:31:39.562Z,96357.53
2017-12-15T00:34:07.009Z,96351.58
2017-12-15T00:36:34.459Z,96348.53
2017-12-15T00:39:02.250Z,96355.02
2017-12-15T00:41:29.698Z,96364.52
2017-12-15T00:43:57.144Z,96359.16
2017-12-15T00:46:25.998Z,96349.64
2017-12-15T00:48:53.463Z,96348.80
2017-12-15T00:51:20.920Z,96342.72
2017-12-15T00:53:48.846Z,96341.61
2017-12-15T00:56:16.321Z,96343.54
2017-12-15T00:58:43.779Z,96338.83
2017-12-15T01:01:11.539Z,96336.71
2017-12-15T01:03:38.991Z,96333.48
2017-12-15T01:06:06.435Z,96338.16
2017-12-15T01:08:34.226Z,96329.48
2017-12-15T01:11:01.669Z,96337.30
2017-12-15T01:13:32.278Z,96331.51
2017-12-15T01:16:00.297Z,96335.05
2017-12-15T01:18:27.760Z,96337.00
2017-12-15T01:20:55.217Z,96328.60
2017-12-15T01:23:23.282Z,96328.82
2017-12-15T01:25:52.360Z,96322.41
2017-12-15T01:28:19.814Z,96324.98
2017-12-15T01:30:47.636Z,96322.01
2017-12-15T01:33:15.085Z,96320.91
2017-12-15T01:35:42.542Z,96320.19
2017-12-15T01:38:10.497Z,96316.48
2017-12-15T01:40:37.952Z,96325.69
2017-12-15T01:43:05.398Z,96321.05
2017-12-15T01:45:33.184Z,96318.78
2017-12-15T01:48:00.633Z,96330.05
2017-12-15T01:50:28.080Z,96323.16
2017-12-15T01:52:55.882Z,96332.28
2017-12-15T01:55:23.353Z,96328.66
2017-12-15T01:57:51.316Z,96327.59
2017-12-15T02:00:19.169Z,96328.80
2017-12-15T02:02:46.621Z,96337.66
2017-12-15T02:05:14.073Z,96344.59
2017-12-15T02:07:41.859Z,96347.42
2017-12-15T02:10:09.316Z,96347.20
2017-12-15T02:12:36.762Z,96337.15
2017-12-15T02:15:05.468Z,96339.54
2017-12-15T02:17:32.921Z,96339.82
2017-12-15T02:20:00.376Z,96338.48
2017-12-15T02:22:28.164Z,96330.75
2017-12-15T02:24:55.621Z,96322.97
2017-12-15T02:27:23.077Z,96319.87
2017-12-15T02:29:52.085Z,96309.92
2017-12-15T02:32:19.549Z,96297.45
2017-12-15T02:34:47.007Z,96288.84
2017-12-15T02:37:14.792Z,96277.05
2017-12-15T02:39:42.236Z,96279.91
2017-12-15T02:42:09.694Z,96287.54
2017-12-15T02:44:37.368Z,96285.11
2017-12-15T02:47:04.822Z,96281.16
2017-12-15T02:49:32.279Z,96282.41
2017-12-15T02:52:00.129Z,96290.26
2017-12-15T02:54:27.585Z,96286.31
2017-12-15T02:56:55.033Z,96283.73
2017-12-15T02:59:22.827Z,96292.82
2017-12-15T03:01:50.286Z,96281.54
2017-12-15T03:04:17.813Z,96285.34
2017-12-15T03:06:46.120Z,96284.93
2017-12-15T03:09:13.574Z,96290.22
2017-12-15T03:11:41.025Z,96291.89
2017-12-15T03:14:10.342Z,96291.32
2017-12-15T03:16:38.185Z,96290.98
2017-12-15T03:19:05.665Z,96301.36
2017-12-15T03:21:33.541Z,96299.91
2017-12-15T03:24:01.005Z,96299.95
2017-12-15T03:26:28.472Z,96295.66
2017-12-15T03:28:56.324Z,96296.19
2017-12-15T03:31:23.778Z,96301.92
2017-12-15T03:33:52.225Z,96292.81
2017-12-15T03:36:20.090Z,96291.63
2017-12-15T03:38:47.547Z,96292.65
2017-12-15T03:41:14.998Z,96303.26
2017-12-15T03:43:42.931Z,96298.23
2017-12-15T03:46:10.398Z,96302.08
2017-12-15T03:48:37.862Z,96311.17
2017-12-15T03:51:05.619Z,96319.61
2017-12-15T03:53:33.079Z,96328.16
2017-12-15T03:56:00.583Z,96323.91
2017-12-15T03:58:28.310Z,96335.05
2017-12-15T04:00:55.765Z,96342.93
2017-12-15T04:03:23.225Z,96353.49
2017-12-15T04:05:52.246Z,96366.50
2017-12-15T04:08:19.660Z,96365.53
2017-12-15T04:10:47.117Z,96378.38
2017-12-15T04:13:14.875Z,96384.89
2017-12-15T04:15:42.333Z,96392.35
2017-12-15T04:18:10.224Z,96396.46
2017-12-15T04:20:37.909Z,96409.86
2017-12-15T04:23:05.373Z,96422.59
2017-12-15T04:25:32.834Z,96433.98
2017-12-15T04:28:00.589Z,96449.78
2017-12-15T04:30:28.044Z,96456.21
2017-12-15T04:32:55.500Z,96471.54
2017-12-15T04:35:23.267Z,96487.36
2017-12-15T04:37:50.746Z,96495.60
2017-12-15T04:40:18.779Z,96509.47
2017-12-15T04:42:46.667Z,96521.88
2017-12-15T04:45:14.471Z,96531.23
2017-12-15T04:47:41.956Z,96525.52
2017-12-15T04:50:09.814Z,96525.14
2017-12-15T04:52:37.262Z,96516.45
2017-12-15T04:55:04.719Z,96515.66
2017-12-15T04:57:32.568Z,96516.38
2017-12-15T05:00:00.019Z,96513.63
2017-12-15T05:02:27.477Z,96512.92
2017-12-15T05:04:55.161Z,96514.62
2017-12-15T05:07:22.627Z,96513.56
2017-12-15T05:09:50.084Z,96508.20
2017-12-15T05:12:17.842Z,96506.94
2017-12-15T05:14:45.308Z,96505.05
2017-12-15T05:17:12.820Z,96512.88
2017-12-15T05:19:40.941Z,96516.42
2017-12-15T05:22:08.417Z,96520.77
2017-12-15T05:24:35.880Z,96506.30
2017-12-15T05:27:03.605Z,96502.19
2017-12-15T05:29:31.073Z,96508.88
2017-12-15T05:31:58.534Z,96513.45
2017-12-15T05:34:26.305Z,96506.86
2017-12-15T05:36:53.761Z,96509.87
2017-12-15T05:39:21.214Z,96492.03
2017-12-15T05:41:48.988Z,96486.89
2017-12-15T05:44:16.448Z,96489.97
2017-12-15T05:46:43.901Z,96501.30
2017-12-15T05:49:11.684Z,96506.38
2017-12-15T05:51:39.145Z,96520.45
2017-12-15T05:54:06.601Z,96526.33
2017-12-15T05:56:34.238Z,96546.44
2017-12-15T05:59:01.690Z,96549.45
2017-12-15T06:01:29.145Z,96555.70
2017-12-15T06:03:57.053Z,96564.99
2017-12-15T06:06:24.505Z,96553.15
2017-12-15T06:08:51.965Z,96559.20
2017-12-15T06:11:19.734Z,96570.09
2017-12-15T06:13:47.189Z,96576.31
2017-12-15T06:16:14.642Z,96588.08
2017-12-15T06:18:42.285Z,96594.87
2017-12-15T06:21:10.586Z,96604.41
2017-12-15T06:23:38.046Z,96606.53
2017-12-15T06:26:06.037Z,96598.76
2017-12-15T06:28:33.497Z,96595.91
2017-12-15T06:31:00.961Z,96591.55
2017-12-15T06:33:28.736Z,96589.03
2017-12-15T06:35:56.193Z,96590.12
2017-12-15T06:38:23.662Z,96585.78
2017-12-15T06:40:51.421Z,96586.42
2017-12-15T06:43:18.885Z,96580.59
2017-12-15T06:45:46.349Z,96580.59
2017-12-15T06:48:14.106Z,96592.09
2017-12-15T06:50:41.560Z,96600.49
2017-12-15T06:53:09.016Z,96591.76
2017-12-15T06:55:36.790Z,96593.83
2017-12-15T06:58:04.244Z,96608.08
2017-12-15T07:00:31.702Z,96611.69
2017-12-15T07:02:59.469Z,96611.69
2017-12-15T07:05:26.918Z,96610.84
2017-12-15T07:07:54.373Z,96606.02
2017-12-15T07:10:22.163Z,96613.88
2017-12-15T07:12:49.663Z,96615.82
2017-12-15T07:15:17.130Z,96633.89
2017-12-15T07:17:45.166Z,96636.82
2017-12-15T07:20:12.626Z,96639.23
2017-12-15T07:22:42.309Z,96633.70
2017-12-15T07:25:10.107Z,96634.87
2017-12-15T07:27:37.562Z,96648.74
2017-12-15T07:30:05.014Z,96656.44
2017-12-15T07:32:32.690Z,96651.91
2017-12-15T07:35:00.144Z,96664.27
2017-12-15T07:37:27.611Z,96672.41
2017-12-15T07:39:55.674Z,96675.48
2017-12-15T07:42:23.130Z,96686.92
2017-12-15T07:44:50.580Z,96686.98
2017-12-15T07:47:18.355Z,96687.34
2017-12-15T07:49:45.812Z,96688.88
2017-12-15T07:52:13.266Z,96694.33
2017-12-15T07:54:41.058Z,96687.28
2017-12-15T07:57:08.520Z,96691.94
2017-12-15T07:59:35.985Z,96700.73
2017-12-15T08:02:03.730Z,96706.42
2017-12-15T08:04:31.177Z,96710.15
2017-12-15T08:06:58.641Z,96714.34
2017-12-15T08:09:26.417Z,96714.47
2017-12-15T08:11:53.873Z,96721.05
2017-12-15T08:14:21.329Z,96713.33
2017-12-15T08:16:49.423Z,96726.67
2017-12-15T08:19:16.892Z,96714.89
2017-12-15T08:21:44.349Z,96712.45
2017-12-15T08:24:12.404Z,96717.07
2017-12-15T08:26:39.871Z,96717.48
2017-12-15T08:29:07.332Z,96716.80
2017-12-15T08:31:35.100Z,96728.28
2017-12-15T08:34:02.557Z,96731.15
2017-12-15T08:36:30.010Z,96731.57
2017-12-15T08:38:57.792Z,96726.80
2017-12-15T08:41:25.252Z,96736.41
2017-12-15T08:43:52.720Z,96737.81
2017-12-15T08:46:20.479Z,96740.19
2017-12-15T08:48:47.958Z,96747.02
2017-12-15T08:51:15.440Z,96751.73
2017-12-15T08:53:43.168Z,96754.22
2017-12-15T08:56:10.636Z,96754.48
2017-12-15T08:58:38.094Z,96746.45
2017-12-15T09:01:05.878Z,96746.41
2017-12-15T09:03:33.333Z,96745.49
2017-12-15T09:06:00.789Z,96754.73
2017-12-15T09:08:28.839Z,96748.84
2017-12-15T09:10:56.324Z,96757.17
2017-12-15T09:13:23.788Z,96753.24
2017-12-15T09:15:51.524Z,96749.80
2017-12-15T09:18:18.975Z,96749.69
2017-12-15T09:20:46.425Z,96751.25
2017-12-15T09:23:14.158Z,96749.04
2017-12-15T09:25:41.954Z,96746.52
2017-12-15T09:28:09.405Z,96746.82
2017-12-15T09:30:37.207Z,96742.54
2017-12-15T09:33:04.681Z,96738.23
2017-12-15T09:35:32.137Z,96741.52
2017-12-15T09:37:59.900Z,96745.76
2017-12-15T09:40:27.357Z,96749.30
2017-12-15T09:42:54.818Z,96755.52
2017-12-15T09:45:22.878Z,96751.29
2017-12-15T09:47:50.332Z,96765.17
2017-12-15T09:50:17.785Z,96768.91
2017-12-15T09:52:45.581Z,96780.36
2017-12-15T09:55:13.041Z,96770.16
2017-12-15T09:57:40.517Z,96782.58
2017-12-15T10:00:08.885Z,96776.95
2017-12-15T10:02:36.345Z,96780.02
2017-12-15T10:05:03.804Z,96780.48
2017-12-15T10:07:31.561Z,96775.63
2017-12-15T10:09:59.024Z,96772.34
2017-12-15T10:12:26.484Z,96779.56
2017-12-15T10:14:54.245Z,96768.03
2017-12-15T10:17:21.702Z,96767.30
2017-12-15T10:19:49.249Z,96768.78
2017-12-15T10:22:16.884Z,96763.56
2017-12-15T10:24:44.336Z,96772.25
2017-12-15T10:27:12.849Z,96771.59
2017-12-15T10:29:41.153Z,96768.84
2017-12-15T10:32:08.606Z,96770.03
2017-12-15T10:34:36.058Z,96768.27
2017-12-15T10:37:03.755Z,96771.88
2017-12-15T10:39:31.210Z,96771.96
2017-12-15T10:41:58.652Z,96772.17
2017-12-15T10:44:26.534Z,96760.64
2017-12-15T10:46:53.986Z,96759.91
2017-12-15T10:49:21.431Z,96763.45
2017-12-15T10:51:49.223Z,96754.03
2017-12-15T10:54:16.666Z,96756.77
2017-12-15T10:56:44.114Z,96756.69
2017-12-15T10:59:11.899Z,96753.50
2017-12-15T11:01:39.360Z,96748.75
2017-12-15T11:04:06.804Z,96745.60
2017-12-15T11:06:34.586Z,96743.62
2017-12-15T11:09:02.028Z,96741.36
2017-12-15T11:11:29.468Z,96742.96
2017-12-15T11:13:57.282Z,96747.53
2017-12-15T11:16:24.730Z,96745.40
2017-12-15T11:18:52.173Z,96754.31
2017-12-15T11:21:19.864Z,96753.89
2017-12-15T11:23:47.317Z,96763.56
2017-12-15T11:26:14.758Z,96765.91
2017-12-15T11:28:42.974Z,96763.39
2017-12-15T11:31:10.431Z,96745.69
2017-12-15T11:33:37.901Z,96742.50
2017-12-15T11:36:05.696Z,96737.25
2017-12-15T11:38:33.147Z,96727.83
2017-12-15T11:41:00.595Z,96737.72
2017-12-15T11:43:28.364Z,96743.22
2017-12-15T11:45:55.816Z,96752.19
2017-12-15T11:48:23.269Z,96753.08
2017-12-15T11:50:51.013Z,96755.67
2017-12-15T11:53:18.457Z,96760.08
2017-12-15T11:55:45.893Z,96753.32
2017-12-15T11:58:13.710Z,96751.41
2017-12-15T12:00:41.157Z,96738.73
2017-12-15T12:03:08.603Z,96734.41
2017-12-15T12:05:36.390Z,96733.11
2017-12-15T12:08:03.836Z,96725.63
2017-12-15T12:10:31.273Z,96727.56
2017-12-15T12:12:59.080Z,96723.97
2017-12-15T12:15:26.520Z,96718.78
2017-12-15T12:17:53.957Z,96730.16
2017-12-15T12:20:21.765Z,96730.18
2017-12-15T12:22:49.215Z,96740.91
2017-12-15T12:25:16.660Z,96738.64
2017-12-15T12:27:44.281Z,96743.41
2017-12-15T12:30:12.598Z,96762.21
2017-12-15T12:32:40.038Z,96761.00
2017-12-15T12:35:07.758Z,96759.33
2017-12-15T12:37:35.197Z,96755.86
2017-12-15T12:40:02.632Z,96768.63
2017-12-15T12:42:30.461Z,96763.45
2017-12-15T12:44:57.903Z,96758.84
2017-12-15T12:47:25.400Z,96751.23
2017-12-15T12:49:53.129Z,96742.69
2017-12-15T12:52:20.579Z,96742.62
2017-12-15T12:54:48.025Z,96747.05
2017-12-15T12:57:16.233Z,96746.88
2017-12-15T12:59:43.693Z,96750.78
2017-12-15T13:02:11.153Z,96757.85
2017-12-15T13:04:38.912Z,96744.52
2017-12-15T13:07:06.359Z,96750.83
2017-12-15T13:09:33.805Z,96764.76
2017-12-15T13:12:01.496Z,96754.91
2017-12-15T13:14:28.933Z,96755.40
2017-12-15T13:16:56.406Z,96750.38
2017-12-15T13:19:24.181Z,96751.25
2017-12-15T13:21:51.643Z,96765.78
2017-12-15T13:24:19.085Z,96773.70
2017-12-15T13:26:47.011Z,96777.22
2017-12-15T13:29:14.467Z,96773.91
2017-12-15T13:31:42.478Z,96772.65
2017-12-15T13:34:10.497Z,96772.79
2017-12-15T13:36:37.937Z,96775.16
2017-12-15T13:39:05.382Z,96781.06
2017-12-15T13:41:33.131Z,96774.05
2017-12-15T13:44:00.580Z,96775.09
2017-12-15T13:46:28.017Z,96779.09
2017-12-15T13:48:55.846Z,96773.14
2017-12-15T13:51:23.292Z,96778.81
2017-12-15T13:53:50.739Z,96776.70
2017-12-15T13:56:18.534Z,96784.98
2017-12-15T13:58:45.983Z,96798.43
2017-12-15T14:01:13.428Z,96794.60
2017-12-15T14:03:41.290Z,96784.31
2017-12-15T14:06:08.737Z,96794.95
2017-12-15T14:08:36.178Z,96793.89
2017-12-15T14:11:03.931Z,96801.30
2017-12-15T14:13:31.368Z,96785.93
2017-12-15T14:15:58.813Z,96766.84
2017-12-15T14:18:26.601Z,96755.02
2017-12-15T14:20:54.041Z,96757.63
2017-12-15T14:23:21.482Z,96755.97
2017-12-15T14:25:49.283Z,96750.56
2017-12-15T14:28:16.725Z,96741.55
2017-12-15T14:30:44.169Z,96746.55
2017-12-15T14:33:13.562Z,96738.86
2017-12-15T14:35:41.005Z,96743.63
2017-12-15T14:38:08.455Z,96756.73
2017-12-15T14:40:36.201Z,96776.80
2017-12-15T14:43:03.643Z,96784.18
2017-12-15T14:45:31.095Z,96783.83
2017-12-15T14:47:58.761Z,96788.23
2017-12-15T14:50:26.216Z,96776.33
2017-12-15T14:52:53.658Z,96786.48
2017-12-15T14:55:21.571Z,96792.05
2017-12-15T14:57:49.014Z,96801.98
2017-12-15T15:00:16.456Z,96807.55
2017-12-15T15:02:44.273Z,96803.94
2017-12-15T15:05:11.713Z,96797.48
2017-12-15T15:07:39.172Z,96800.94
2017-12-15T15:10:06.951Z,96799.34
2017-12-15T15:12:34.394Z,96801.84
2017-12-15T15:15:01.841Z,96799.95
2017-12-15T15:17:29.633Z,96796.14
2017-12-15T15:19:57.085Z,96797.50
2017-12-15T15:22:24.530Z,96800.52
2017-12-15T15:24:52.326Z,96797.43
2017-12-15T15:27:19.782Z,96802.98
2017-12-15T15:29:47.230Z,96801.33
2017-12-15T15:32:15.025Z,96795.75
2017-12-15T15:34:43.800Z,96801.19
2017-12-15T15:37:11.265Z,96803.50
2017-12-15T15:39:39.222Z,96797.83
2017-12-15T15:42:06.740Z,96793.45
2017-12-15T15:44:34.184Z,96802.96
2017-12-15T15:47:01.909Z,96807.13
2017-12-15T15:49:29.358Z,96801.22
2017-12-15T15:51:56.815Z,96802.42
2017-12-15T15:54:24.597Z,96806.89
2017-12-15T15:56:52.041Z,96800.85
2017-12-15T15:59:19.484Z,96796.67
2017-12-15T16:01:47.193Z,96804.89
2017-12-15T16:04:14.642Z,96805.81
2017-12-15T16:06:42.094Z,96791.50
2017-12-15T16:09:09.973Z,96788.88
2017-12-15T16:11:37.425Z,96795.20
2017-12-15T16:14:04.876Z,96796.43
2017-12-15T16:16:32.686Z,96791.70
2017-12-15T16:19:00.133Z,96785.41
2017-12-15T16:21:27.587Z,96791.40
2017-12-15T16:23:55.658Z,96794.27
2017-12-15T16:26:23.140Z,96790.03
2017-12-15T16:28:50.606Z,96786.33
2017-12-15T16:31:18.653Z,96783.58
2017-12-15T16:33:46.109Z,96789.98
2017-12-15T16:36:13.959Z,96789.20
2017-12-15T16:38:41.654Z,96782.57
2017-12-15T16:41:09.104Z,96788.52
2017-12-15T16:43:36.549Z,96786.63
2017-12-15T16:46:04.349Z,96786.58
2017-12-15T16:48:31.792Z,96784.23
2017-12-15T16:50:59.259Z,96781.81
2017-12-15T16:53:27.022Z,96783.75
2017-12-15T16:55:54.477Z,96786.50
2017-12-15T16:58:21.934Z,96778.44
2017-12-15T17:00:49.714Z,96793.92
2017-12-15T17:03:17.179Z,96790.43
2017-12-15T17:05:44.632Z,96774.73
2017-12-15T17:08:12.396Z,96773.58
2017-12-15T17:10:39.849Z,96779.13
2017-12-15T17:13:07.298Z,96784.33
2017-12-15T17:15:35.695Z,96786.48
2017-12-15T17:18:03.150Z,96793.14
2017-12-15T17:20:30.625Z,96802.56
2017-12-15T17:22:58.385Z,96799.47
2017-12-15T17:25:25.855Z,96793.33
2017-12-15T17:27:53.319Z,96789.87
2017-12-15T17:30:21.390Z,96785.77
2017-12-15T17:32:48.857Z,96799.02
2017-12-15T17:35:16.319Z,96809.38
2017-12-15T17:37:44.634Z,96808.44
2017-12-15T17:40:12.093Z,96818.13
2017-12-15T17:42:39.545Z,96807.87
2017-12-15T17:45:07.622Z,96795.94
2017-12-15T17:47:35.142Z,96794.65
2017-12-15T17:50:02.618Z,96809.66
2017-12-15T17:52:30.375Z,96808.64
2017-12-15T17:54:57.836Z,96809.27
2017-12-15T17:57:25.291Z,96804.76
2017-12-15T17:59:53.062Z,96809.73
2017-12-15T18:02:24.565Z,96823.41
2017-12-15T18:04:52.134Z,96822.26
2017-12-15T18:07:20.048Z,96827.19
2017-12-15T18:09:47.507Z,96821.09
2017-12-15T18:12:14.953Z,96829.67
2017-12-15T18:14:42.729Z,96836.08
2017-12-15T18:17:10.181Z,96834.65
2017-12-15T18:19:37.643Z,96830.14
2017-12-15T18:22:05.710Z,96819.56
2017-12-15T18:24:33.168Z,96811.45
2017-12-15T18:27:00.629Z,96805.95
2017-12-15T18:29:28.408Z,96805.73
2017-12-15T18:31:55.862Z,96811.80
2017-12-15T18:34:23.323Z,96795.28
2017-12-15T18:36:51.128Z,96808.40
2017-12-15T18:39:18.929Z,96809.64
2017-12-15T18:41:46.409Z,96823.80
2017-12-15T18:44:14.246Z,96824.77
2017-12-15T18:46:41.732Z,96834.79
2017-12-15T18:49:09.205Z,96844.38
2017-12-15T18:51:37.094Z,96843.94
2017-12-15T18:54:04.553Z,96841.86
2017-12-15T18:56:32.027Z,96841.62
2017-12-15T18:59:00.051Z,96834.44
2017-12-15T19:01:27.525Z,96821.88
2017-12-15T19:03:54.972Z,96842.63
2017-12-15T19:06:22.748Z,96852.08
2017-12-15T19:08:50.212Z,96833.11
2017-12-15T19:11:17.665Z,96837.80
2017-12-15T19:13:45.462Z,96844.34
2017-12-15T19:16:12.938Z,96831.45
2017-12-15T19:18:40.389Z,96830.48
2017-12-15T19:21:08.146Z,96836.95
2017-12-15T19:23:35.609Z,96841.73
2017-12-15T19:26:03.095Z,96835.27
2017-12-15T19:28:30.838Z,96812.48
2017-12-15T19:30:58.603Z,96810.61
2017-12-15T19:33:26.064Z,96801.92
2017-12-15T19:35:54.117Z,96817.48
2017-12-15T19:38:21.577Z,96817.05
2017-12-15T19:40:51.890Z,96822.49
2017-12-15T19:43:19.908Z,96813.77
2017-12-15T19:45:47.379Z,96805.33
2017-12-15T19:48:14.874Z,96825.08
2017-12-15T19:50:42.890Z,96825.44
2017-12-15T19:53:10.341Z,96825.25
2017-12-15T19:55:37.810Z,96833.19
2017-12-15T19:58:05.547Z,96843.29
2017-12-15T20:00:33.011Z,96843.64
2017-12-15T20:03:00.546Z,96830.98
2017-12-15T20:05:28.268Z,96819.88
2017-12-15T20:07:56.258Z,96806.99
2017-12-15T20:10:23.871Z,96814.19
2017-12-15T20:12:51.868Z,96808.59
2017-12-15T20:15:19.880Z,96813.03
2017-12-15T20:17:47.348Z,96815.23
2017-12-15T20:20:15.166Z,96811.83
2017-12-15T20:22:42.625Z,96799.11
2017-12-15T20:25:10.085Z,96803.70
2017-12-15T20:27:37.857Z,96822.57
2017-12-15T20:30:05.314Z,96822.06
2017-12-15T20:32:32.777Z,96830.11
2017-12-15T20:35:00.857Z,96840.77
2017-12-15T20:37:28.318Z,96850.85
2017-12-15T20:39:55.787Z,96851.00
2017-12-15T20:42:24.094Z,96855.42
2017-12-15T20:44:51.706Z,96851.18
2017-12-15T20:47:19.177Z,96859.70
2017-12-15T20:49:47.140Z,96849.42
2017-12-15T20:52:14.606Z,96860.48
2017-12-15T20:54:42.063Z,96869.87
2017-12-15T20:57:09.816Z,96878.48
2017-12-15T20:59:37.272Z,96876.97
2017-12-15T21:02:04.732Z,96860.47
2017-12-15T21:04:32.641Z,96865.59
2017-12-15T21:07:00.099Z,96859.95
2017-12-15T21:09:27.579Z,96865.27
2017-12-15T21:11:55.501Z,96873.83
2017-12-15T21:14:22.960Z,96872.41
2017-12-15T21:16:50.412Z,96867.36
2017-12-15T21:19:18.209Z,96860.47
2017-12-15T21:21:45.680Z,96863.99
2017-12-15T21:24:13.135Z,96860.24
2017-12-15T21:26:40.882Z,96855.05
2017-12-15T21:29:08.349Z,96859.78
2017-12-15T21:31:35.849Z,96866.25
2017-12-15T21:34:03.924Z,96870.23
2017-12-15T21:36:31.446Z,96863.98
2017-12-15T21:38:58.909Z,96867.01
2017-12-15T21:41:26.558Z,96871.90
2017-12-15T21:43:54.957Z,96870.39
2017-12-15T21:46:22.423Z,96870.22
2017-12-15T21:48:50.163Z,96866.89
2017-12-15T21:51:17.622Z,96868.09
2017-12-15T21:53:45.086Z,96867.67
2017-12-15T21:56:12.862Z,96862.82
2017-12-15T21:58:40.320Z,96861.09
2017-12-15T22:01:07.778Z,96863.95
2017-12-15T22:03:35.552Z,96861.36
2017-12-15T22:06:03.009Z,96872.61
2017-12-15T22:08:30.479Z,96870.41
2017-12-15T22:10:58.226Z,96877.66
2017-12-15T22:13:25.682Z,96879.92
2017-12-15T22:15:53.138Z,96881.73
2017-12-15T22:18:20.917Z,96895.00
2017-12-15T22:20:48.374Z,96899.45
2017-12-15T22:23:15.841Z,96903.88
2017-12-15T22:25:44.226Z,96907.05
2017-12-15T22:28:11.738Z,96910.94
2017-12-15T22:30:39.198Z,96913.56
2017-12-15T22:33:07.141Z,96909.91
2017-12-15T22:35:34.593Z,96911.23
2017-12-15T22:38:02.045Z,96908.61
2017-12-15T22:40:29.901Z,96903.12
2017-12-15T22:42:57.356Z,96918.89
2017-12-15T22:45:25.208Z,96915.24
2017-12-15T22:47:53.196Z,96913.52
2017-12-15T22:50:20.647Z,96920.93
2017-12-15T22:52:48.109Z,96913.78
2017-12-15T22:55:16.519Z,96914.69
2017-12-15T22:57:43.969Z,96918.34
2017-12-15T23:00:11.419Z,96922.29
2017-12-15T23:02:39.205Z,96920.03
2017-12-15T23:05:06.654Z,96923.84
2017-12-15T23:07:34.119Z,96920.55
2017-12-15T23:10:01.873Z,96912.75
2017-12-15T23:12:30.950Z,96912.17
2017-12-15T23:14:58.406Z,96909.68
2017-12-15T23:17:26.041Z,96903.28
2017-12-15T23:19:53.509Z,96912.14
2017-12-15T23:22:20.968Z,96909.81
2017-12-15T23:24:48.782Z,96913.66
2017-12-15T23:27:16.229Z,96922.94
2017-12-15T23:29:43.688Z,96912.43
2017-12-15T23:32:11.397Z,96916.34
2017-12-15T23:34:38.860Z,96911.81
2017-12-15T23:37:06.325Z,96905.28
2017-12-15T23:39:34.158Z,96911.62
2017-12-15T23:42:01.614Z,96906.90
2017-12-15T23:44:29.062Z,96905.90
2017-12-15T23:46:57.496Z,96909.52
2017-12-15T23:49:24.952Z,96906.70
2017-12-15T23:51:52.410Z,96893.22
2017-12-15T23:54:31.825Z,96887.36
2017-12-15T23:57:01.205Z,96878.58
2017-12-15T23:59:28.663Z,96881.81
